Terminal Aerodrome Forecast
Issued by NWS Nashville, TN

Home | Current Version | Previous Version | Text Only | Print | Product List | Glossary On
Versions: 1 2 3 4 5 6 7 8 9 10 11 12 13
861
FTUS44 KOHX 221453 AAA
TAFBNA
TAF AMD
KBNA 221453Z 2215/2312 14005KT 2SM -SHRA BR SCT030 OVC050
      TEMPO 2215/2218 5SM -SHRA BR SCT020 OVC030
     FM221800 11013G20KT 4SM SHRA OVC025
     FM230000 10020G32KT 2SM SHRA OVC015
     FM230600 11015G23KT 2SM -SHRA OVC025=

USA.gov is the U.S. government's official web portal to all federal, state and local government web resources and services.